Aérodrome :
LOGIN :

S'inscrire | Disclaimer

   EN    FR    IT 

 










Légende :    VFR   VFR Marginal   IFR   IFR Intensif   IFR Très Intensif
Visi : 
Plafond : 
>= 8 km
>= 3000ft
5 à 8 km
1000 à 3000 ft
1500m à 5 km
500 à 1000 ft
800 à 1500m
200 à 500 ft
< 800m
< 200 ft
Symboles :   Orages  Brouillard  Fortes neiges  Fortes précipitations  Vent > 20 kt
SIGMETs :   Divers  Orages  Givrage  Turbulence  Onde Orograph.  Cendres Volcan.







- Altitude de l'aérodrome : 16 ft
- Code IATA : SDR


LEXJ - Santander Cantabria

DERNIER METAR :
  • 271330Z 30009KT 9999 SCT008 BKN012 17/16 Q1019

METARs EXPIRÉS :
  • 271300Z 30009KT 270V330 9999 SCT008 BKN012 OVC024 16/16 Q1019
  • 271244Z 29010KT 260V330 9999 FEW008 BKN012 OVC024 16/16 Q1019
  • 271230Z 29012KT 1200 R29/1000U R11/P2000 BR -DZ SCT005 BKN009 OVC013 16/15 Q1019
  • 271200Z 28012KT 250V310 1200 R29/0750D R11/P2000 BR DZ SCT005 OVC008 16/15 Q1019
  • 271130Z 28012KT 4000 BR FEW008 OVC012 16/15 Q1019
  • 271100Z 25005KT 230V290 4000 -DZ BR FEW005 BKN008 OVC012 16/15 Q1019

TAF COR TAF LEXJ
Valide du 27 à 09h jusqu'au 28 à 09h UTC


270844Z 2709/2809 26005KT 9999 SCT015 BKN025 TX17/2714Z TN11/2804Z
BECMG 2710/2714 35010KT
TEMPO 2709/2718 3000 -RADZ BKN010 BKN014
PROB40
TEMPO 2709/2712 1500 DZ BR BKN005
BECMG 2718/2722 26005KT
PROB40
TEMPO 2803/2809 3000 -RADZ BKN010 BKN014
Pas de NOTAMs connus pour ce terrain.



MET'MAP, la Météo Aéronautique d'un coup d'oeil ! - Copyright ORBIFLY Décembre 2007 - Disclaimer

ORBIFLY MET'MAP TEAM :

Programmation & Développement : Alexandra Zaïnal
Conception & Développement : Baudouin d'Aumeries
Co-Programmation & Développement : Marc-Olivier Méhu
Soutien technique & logistique : Manuel Goepfert

Contact : metmap@orbifly.com




SOURCES & CREDITS :

   NOAA